Map

Track Data

SID SEASON NUMBER BASIN SUBBASIN NAME ISO_TIME NATURE LAT LON WMO_WIND WMO_PRES WMO_AGENCY TRACK_TYPE DIST2LAND LANDFALL IFLAG USA_AGENCY USA_ATCF_ID USA_LAT USA_LON USA_RECORD USA_STATUS USA_WIND USA_PRES USA_SSHS USA_R34_NE USA_R34_SE USA_R34_SW USA_R34_NW USA_R50_NE USA_R50_SE USA_R50_SW USA_R50_NW USA_R64_NE USA_R64_SE USA_R64_SW USA_R64_NW USA_POCI USA_ROCI USA_RMW USA_EYE TOKYO_LAT TOKYO_LON TOKYO_GRADE TOKYO_WIND TOKYO_PRES TOKYO_R50_DIR TOKYO_R50_LONG TOKYO_R50_SHORT TOKYO_R30_DIR TOKYO_R30_LONG TOKYO_R30_SHORT TOKYO_LAND CMA_LAT CMA_LON CMA_CAT CMA_WIND CMA_PRES HKO_LAT HKO_LON HKO_CAT HKO_WIND HKO_PRES NEWDELHI_LAT NEWDELHI_LON NEWDELHI_GRADE NEWDELHI_WIND NEWDELHI_PRES NEWDELHI_CI NEWDELHI_DP NEWDELHI_POCI REUNION_LAT REUNION_LON REUNION_TYPE REUNION_WIND REUNION_PRES REUNION_TNUM REUNION_CI REUNION_RMW REUNION_R34_NE REUNION_R34_SE REUNION_R34_SW REUNION_R34_NW REUNION_R50_NE REUNION_R50_SE REUNION_R50_SW REUNION_R50_NW REUNION_R64_NE REUNION_R64_SE REUNION_R64_SW REUNION_R64_NW BOM_LAT BOM_LON BOM_TYPE BOM_WIND BOM_PRES BOM_TNUM BOM_CI BOM_RMW BOM_R34_NE BOM_R34_SE BOM_R34_SW BOM_R34_NW BOM_R50_NE BOM_R50_SE BOM_R50_SW BOM_R50_NW BOM_R64_NE BOM_R64_SE BOM_R64_SW BOM_R64_NW BOM_ROCI BOM_POCI BOM_EYE BOM_POS_METHOD BOM_PRES_METHOD NADI_LAT NADI_LON NADI_CAT NADI_WIND NADI_PRES WELLINGTON_LAT WELLINGTON_LON WELLINGTON_WIND WELLINGTON_PRES DS824_LAT DS824_LON DS824_STAGE DS824_WIND DS824_PRES TD9636_LAT TD9636_LON TD9636_STAGE TD9636_WIND TD9636_PRES TD9635_LAT TD9635_LON TD9635_WIND TD9635_PRES TD9635_ROCI NEUMANN_LAT NEUMANN_LON NEUMANN_CLASS NEUMANN_WIND NEUMANN_PRES MLC_LAT MLC_LON MLC_CLASS MLC_WIND MLC_PRES USA_GUST BOM_GUST BOM_GUST_PER REUNION_GUST REUNION_GUST_PER USA_SEAHGT USA_SEARAD_NE USA_SEARAD_SE USA_SEARAD_SW USA_SEARAD_NW STORM_SPEED STORM_DIR
1917188N12301 1917 26 NA NA NOT_NAMED 1917-07-06 12:00:00 TS 12.0000 -59.0000 25 hurdat_atl main 262 211 O_____________ hurdat_atl AL011917 12.0000 -59.0000 TD 25 -1 15 277
1917188N12301 1917 26 NA CS NOT_NAMED 1917-07-06 15:00:00 TS 12.0879 -59.7500 main 211 176 P_____________ AL011917 12.0879 -59.7500 TD 25 -1 15 278
1917188N12301 1917 26 NA CS NOT_NAMED 1917-07-06 18:00:00 TS 12.2000 -60.5000 25 hurdat_atl main 176 171 O_____________ hurdat_atl AL011917 12.2000 -60.5000 TD 25 -1 15 280
1917188N12301 1917 26 NA CS NOT_NAMED 1917-07-06 21:00:00 TS 12.3498 -61.2500 main 179 179 P_____________ AL011917 12.3498 -61.2500 TD 27 -1 15 282
1917188N12301 1917 26 NA CS NOT_NAMED 1917-07-07 00:00:00 TS 12.5000 -62.0000 30 hurdat_atl main 202 201 O_____________ hurdat_atl AL011917 12.5000 -62.0000 TD 30 -1 15 280
1917188N12301 1917 26 NA CS NOT_NAMED 1917-07-07 03:00:00 TS 12.5998 -62.7502 main 212 212 P_____________ AL011917 12.5998 -62.7502 TD 30 -1 15 278
1917188N12301 1917 26 NA CS NOT_NAMED 1917-07-07 06:00:00 TS 12.7000 -63.5000 30 hurdat_atl main 228 228 O_____________ hurdat_atl AL011917 12.7000 -63.5000 TD 30 -1 15 280
1917188N12301 1917 26 NA CS NOT_NAMED 1917-07-07 09:00:00 TS 12.8499 -64.2649 main 246 246 P_____________ AL011917 12.8499 -64.2649 TD 32 -1 15 282
1917188N12301 1917 26 NA CS NOT_NAMED 1917-07-07 12:00:00 TS 13.0000 -65.0000 35 hurdat_atl main 282 279 O_____________ hurdat_atl AL011917 13.0000 -65.0000 TS 35 0 14 280
1917188N12301 1917 26 NA CS NOT_NAMED 1917-07-07 15:00:00 TS 13.0997 -65.6652 main 281 279 P_____________ AL011917 13.0997 -65.6652 TS 35 0 13 279
1917188N12301 1917 26 NA CS NOT_NAMED 1917-07-07 18:00:00 TS 13.2000 -66.3000 35 hurdat_atl main 291 286 O_____________ hurdat_atl AL011917 13.2000 -66.3000 TS 35 0 13 281
1917188N12301 1917 26 NA CS NOT_NAMED 1917-07-07 21:00:00 TS 13.3499 -66.9574 main 280 268 P_____________ AL011917 13.3499 -66.9574 TS 37 0 13 283
1917188N12301 1917 26 NA CS NOT_NAMED 1917-07-08 00:00:00 TS 13.5000 -67.6000 40 hurdat_atl main 268 249 O_____________ hurdat_atl AL011917 13.5000 -67.6000 TS 40 0 12 282
1917188N12301 1917 26 NA CS NOT_NAMED 1917-07-08 03:00:00 TS 13.5998 -68.2077 main 249 215 P_____________ AL011917 13.5998 -68.2077 TS 40 0 12 280
1917188N12301 1917 26 NA CS NOT_NAMED 1917-07-08 06:00:00 TS 13.7000 -68.8000 40 hurdat_atl main 215 197 O_____________ hurdat_atl AL011917 13.7000 -68.8000 TS 40 0 12 282
1917188N12301 1917 26 NA CS NOT_NAMED 1917-07-08 09:00:00 TS 13.8499 -69.4000 main 197 197 P_____________ AL011917 13.8499 -69.4000 TS 42 0 12 284
1917188N12301 1917 26 NA CS NOT_NAMED 1917-07-08 12:00:00 TS 14.0000 -70.0000 45 hurdat_atl main 212 212 O_____________ hurdat_atl AL011917 14.0000 -70.0000 TS 45 0 12 282
1917188N12301 1917 26 NA CS NOT_NAMED 1917-07-08 15:00:00 TS 14.0999 -70.6002 main 213 201 P_____________ AL011917 14.0999 -70.6002 TS 45 0 12 280
1917188N12301 1917 26 NA CS NOT_NAMED 1917-07-08 18:00:00 TS 14.2000 -71.2000 45 hurdat_atl main 204 201 O_____________ hurdat_atl AL011917 14.2000 -71.2000 TS 45 0 12 282
1917188N12301 1917 26 NA CS NOT_NAMED 1917-07-08 21:00:00 TS 14.3498 -71.7925 main 213 213 P_____________ AL011917 14.3498 -71.7925 TS 42 0 12 284
1917188N12301 1917 26 NA CS NOT_NAMED 1917-07-09 00:00:00 TS 14.5000 -72.4000 40 hurdat_atl main 247 247 O_____________ hurdat_atl AL011917 14.5000 -72.4000 TS 40 0 12 282
1917188N12301 1917 26 NA CS NOT_NAMED 1917-07-09 03:00:00 TS 14.5999 -73.0427 main 279 279 P_____________ AL011917 14.5999 -73.0427 TS 40 0 13 279
1917188N12301 1917 26 NA CS NOT_NAMED 1917-07-09 06:00:00 TS 14.7000 -73.7000 40 hurdat_atl main 323 323 O_____________ hurdat_atl AL011917 14.7000 -73.7000 TS 40 0 13 281
1917188N12301 1917 26 NA CS NOT_NAMED 1917-07-09 09:00:00 TS 14.8497 -74.3350 main 360 348 P_____________ AL011917 14.8497 -74.3350 TS 37 0 13 283
1917188N12301 1917 26 NA CS NOT_NAMED 1917-07-09 12:00:00 TS 15.0000 -75.0000 35 hurdat_atl main 348 317 O_____________ hurdat_atl AL011917 15.0000 -75.0000 TS 35 0 14 281
1917188N12301 1917 26 NA CS NOT_NAMED 1917-07-09 15:00:00 TS 15.1149 -75.7350 main 317 289 P_____________ AL011917 15.1149 -75.7350 TS 35 0 15 278
1917188N12301 1917 26 NA CS NOT_NAMED 1917-07-09 18:00:00 TS 15.2000 -76.5000 35 hurdat_atl main 289 268 O_____________ hurdat_atl AL011917 15.2000 -76.5000 TS 35 0 15 276
1917188N12301 1917 26 NA CS NOT_NAMED 1917-07-09 21:00:00 TS 15.2573 -77.2501 main 268 268 P_____________ AL011917 15.2573 -77.2501 TS 32 -1 15 274
1917188N12301 1917 26 NA CS NOT_NAMED 1917-07-10 00:00:00 TS 15.3000 -78.0000 30 hurdat_atl main 281 281 O_____________ hurdat_atl AL011917 15.3000 -78.0000 TD 30 -1 15 274
1917188N12301 1917 26 NA CS NOT_NAMED 1917-07-10 03:00:00 TS 15.3497 -78.7500 main 313 303 P_____________ AL011917 15.3497 -78.7500 TD 30 -1 15 274
1917188N12301 1917 26 NA CS NOT_NAMED 1917-07-10 06:00:00 TS 15.4000 -79.5000 30 hurdat_atl main 334 314 O_____________ hurdat_atl AL011917 15.4000 -79.5000 TD 30 -1 15 274
1917188N12301 1917 26 NA CS NOT_NAMED 1917-07-10 09:00:00 TS 15.4497 -80.2500 main 303 232 P_____________ AL011917 15.4497 -80.2500 TD 30 -1 15 274
1917188N12301 1917 26 NA CS NOT_NAMED 1917-07-10 12:00:00 TS 15.5000 -81.0000 30 hurdat_atl main 232 160 O_____________ hurdat_atl AL011917 15.5000 -81.0000 TD 30 -1 15 274
1917188N12301 1917 26 NA CS NOT_NAMED 1917-07-10 15:00:00 TS 15.5497 -81.7500 main 150 93 P_____________ AL011917 15.5497 -81.7500 TD 30 -1 15 274
1917188N12301 1917 26 NA CS NOT_NAMED 1917-07-10 18:00:00 TS 15.6000 -82.5000 30 hurdat_atl main 93 39 O_____________ hurdat_atl AL011917 15.6000 -82.5000 TD 30 -1 15 274
1917188N12301 1917 26 NA CS NOT_NAMED 1917-07-10 21:00:00 TS 15.6499 -83.2650 main 35 11 P_____________ AL011917 15.6499 -83.2650 TD 30 -1 14 274
1917188N12301 1917 26 NA CS NOT_NAMED 1917-07-11 00:00:00 TS 15.7000 -84.0000 30 hurdat_atl main 11 0 O_____________ hurdat_atl AL011917 15.7000 -84.0000 TD 30 -1 14 274
1917188N12301 1917 26 NA NA NOT_NAMED 1917-07-11 03:00:00 TS 15.7422 -84.6726 main 0 0 P_____________ AL011917 15.7422 -84.6726 TD 30 -1 13 275
1917188N12301 1917 26 NA NA NOT_NAMED 1917-07-11 06:00:00 TS 15.8000 -85.3000 30 hurdat_atl main 0 0 O_____________ hurdat_atl AL011917 15.8000 -85.3000 TD 30 -1 12 276
1917188N12301 1917 26 NA NA NOT_NAMED 1917-07-11 09:00:00 TS 15.8699 -85.9226 main 0 0 P_____________ AL011917 15.8699 -85.9226 TD 30 -1 12 280
1917188N12301 1917 26 NA CS NOT_NAMED 1917-07-11 12:00:00 TS 16.0000 -86.5000 30 hurdat_atl main 24 24 O_____________ hurdat_atl AL011917 16.0000 -86.5000 TD 30 -1 11 288
1917188N12301 1917 26 NA CS NOT_NAMED 1917-07-11 15:00:00 TS 16.2274 -87.0374 main 44 44 P_____________ AL011917 16.2274 -87.0374 TD 30 -1 11 298
1917188N12301 1917 26 NA CS NOT_NAMED 1917-07-11 18:00:00 TS 16.5000 -87.5000 30 hurdat_atl main 78 44 O_____________ hurdat_atl AL011917 16.5000 -87.5000 TD 30 -1 10 302
1917188N12301 1917 26 NA CS NOT_NAMED 1917-07-11 21:00:00 TS 16.7499 -87.9025 main 44 0 P_____________ AL011917 16.7499 -87.9025 TD 30 -1 8 307
1917188N12301 1917 26 NA CS NOT_NAMED 1917-07-12 00:00:00 TS 17.0000 -88.2000 30 hurdat_atl main 0 0 O_____________ hurdat_atl AL011917 17.0000 -88.2000 TD 30 -1 7 318
1917188N12301 1917 26 NA NA NOT_NAMED 1917-07-12 03:00:00 TS 17.2499 -88.3652 main 0 0 P_____________ AL011917 17.2499 -88.3652 TD 30 -1 6 330
1917188N12301 1917 26 NA NA NOT_NAMED 1917-07-12 06:00:00 TS 17.5000 -88.5000 30 hurdat_atl main 0 0 O_____________ hurdat_atl AL011917 17.5000 -88.5000 TD 30 -1 6 326
1917188N12301 1917 26 NA NA NOT_NAMED 1917-07-12 09:00:00 TS 17.7499 -88.7126 main 0 0 P_____________ AL011917 17.7499 -88.7126 TD 30 -1 7 316
1917188N12301 1917 26 NA NA NOT_NAMED 1917-07-12 12:00:00 TS 18.0000 -89.0000 30 hurdat_atl main 0 0 O_____________ hurdat_atl AL011917 18.0000 -89.0000 TD 30 -1 8 309
1917188N12301 1917 26 NA NA NOT_NAMED 1917-07-12 15:00:00 TS 18.2499 -89.3626 main 0 0 P_____________ AL011917 18.2499 -89.3626 TD 27 -1 9 303
1917188N12301 1917 26 NA NA NOT_NAMED 1917-07-12 18:00:00 TS 18.5000 -89.8000 25 hurdat_atl main 0 0 O_____________ hurdat_atl AL011917 18.5000 -89.8000 TD 25 -1 10 300
1917188N12301 1917 26 NA NA NOT_NAMED 1917-07-12 21:00:00 TS 18.7499 -90.2776 main 0 0 P_____________ AL011917 18.7499 -90.2776 TD 25 -1 11 298
1917188N12301 1917 26 NA NA NOT_NAMED 1917-07-13 00:00:00 TS 19.0000 -90.8000 25 hurdat_atl main 0 0 O_____________ hurdat_atl AL011917 19.0000 -90.8000 TD 25 -1 11 296
1917188N12301 1917 26 NA GM NOT_NAMED 1917-07-13 03:00:00 TS 19.2499 -91.3426 main 22 22 P_____________ AL011917 19.2499 -91.3426 TD 27 -1 12 296
1917188N12301 1917 26 NA GM NOT_NAMED 1917-07-13 06:00:00 TS 19.5000 -91.9000 30 hurdat_atl main 79 79 O_____________ hurdat_atl AL011917 19.5000 -91.9000 TD 30 -1 12 296
1917188N12301 1917 26 NA GM NOT_NAMED 1917-07-13 09:00:00 TS 19.7498 -92.4427 main 123 123 P_____________ AL011917 19.7498 -92.4427 TD 30 -1 12 296
1917188N12301 1917 26 NA GM NOT_NAMED 1917-07-13 12:00:00 TS 20.0000 -93.0000 30 hurdat_atl main 159 159 O_____________ hurdat_atl AL011917 20.0000 -93.0000 TD 30 -1 12 295
1917188N12301 1917 26 NA GM NOT_NAMED 1917-07-13 15:00:00 TS 20.2499 -93.5927 main 202 202 P_____________ AL011917 20.2499 -93.5927 TD 30 -1 12 294
1917188N12301 1917 26 NA GM NOT_NAMED 1917-07-13 18:00:00 TS 20.5000 -94.2000 30 hurdat_atl main 226 189 O_____________ hurdat_atl AL011917 20.5000 -94.2000 TD 30 -1 12 294
1917188N12301 1917 26 NA GM NOT_NAMED 1917-07-13 21:00:00 TS 20.7497 -94.7927 main 189 160 P_____________ AL011917 20.7497 -94.7927 TD 30 -1 12 294
1917188N12301 1917 26 NA GM NOT_NAMED 1917-07-14 00:00:00 TS 21.0000 -95.4000 30 hurdat_atl main 160 129 O_____________ hurdat_atl AL011917 21.0000 -95.4000 TD 30 -1 13 293
1917188N12301 1917 26 NA GM NOT_NAMED 1917-07-14 03:00:00 TS 21.2498 -96.0427 main 129 63 P_____________ AL011917 21.2498 -96.0427 TD 30 -1 13 292
1917188N12301 1917 26 NA GM NOT_NAMED 1917-07-14 06:00:00 TS 21.5000 -96.7000 30 hurdat_atl main 63 10 O_____________ hurdat_atl AL011917 21.5000 -96.7000 TD 30 -1 13 292
1917188N12301 1917 26 NA GM NOT_NAMED 1917-07-14 09:00:00 TS 21.7505 -97.3521 main 10 0 P_____________ AL011917 21.7505 -97.3521 TD 27 -1 13 292
1917188N12301 1917 26 NA NA NOT_NAMED 1917-07-14 12:00:00 TS 22.0000 -98.0000 25 hurdat_atl main 0 O_____________ hurdat_atl AL011917 22.0000 -98.0000 TD 25 -1 13 293

About IBTrACS Database

This database is a web-friendly format of International Best Track Archive for Climate Stewardship (IBTrACS), a global best track data archive curated by NOAA dating back to 1842.

Updated: 2021-10-08